sensor_id;sensor_type;location;lat;lon;timestamp;P1;durP1;ratioP1;P2;durP2;ratioP2
53339;SDS011;46212;50.258;19.062;2023-11-22T00:00:43;23.70;;;12.45;;
53339;SDS011;46212;50.258;19.062;2023-11-22T00:03:08;22.10;;;13.27;;
53339;SDS011;46212;50.258;19.062;2023-11-22T00:05:34;24.38;;;12.80;;
53339;SDS011;46212;50.258;19.062;2023-11-22T00:07:59;19.52;;;12.32;;
53339;SDS011;46212;50.258;19.062;2023-11-22T00:10:26;23.83;;;12.23;;
53339;SDS011;46212;50.258;19.062;2023-11-22T00:12:51;23.42;;;12.10;;
53339;SDS011;46212;50.258;19.062;2023-11-22T00:15:16;22.23;;;12.35;;
53339;SDS011;46212;50.258;19.062;2023-11-22T00:17:46;23.00;;;12.57;;
53339;SDS011;46212;50.258;19.062;2023-11-22T00:20:11;21.83;;;12.85;;
53339;SDS011;46212;50.258;19.062;2023-11-22T00:22:37;21.13;;;11.40;;
53339;SDS011;46212;50.258;19.062;2023-11-22T00:25:02;21.65;;;11.88;;
53339;SDS011;46212;50.258;19.062;2023-11-22T00:27:28;21.02;;;11.93;;
53339;SDS011;46212;50.258;19.062;2023-11-22T00:29:57;20.75;;;12.10;;
53339;SDS011;46212;50.258;19.062;2023-11-22T00:32:23;22.23;;;12.30;;
53339;SDS011;46212;50.258;19.062;2023-11-22T00:34:49;20.55;;;11.60;;
53339;SDS011;46212;50.258;19.062;2023-11-22T00:37:14;20.52;;;12.40;;
53339;SDS011;46212;50.258;19.062;2023-11-22T00:39:40;21.10;;;12.55;;
53339;SDS011;46212;50.258;19.062;2023-11-22T00:42:06;21.38;;;12.02;;
53339;SDS011;46212;50.258;19.062;2023-11-22T00:44:32;22.60;;;12.20;;
53339;SDS011;46212;50.258;19.062;2023-11-22T00:46:57;22.55;;;12.57;;
53339;SDS011;46212;50.258;19.062;2023-11-22T00:49:23;20.83;;;11.85;;
53339;SDS011;46212;50.258;19.062;2023-11-22T00:51:49;22.85;;;11.98;;
53339;SDS011;46212;50.258;19.062;2023-11-22T00:54:15;20.02;;;13.00;;
53339;SDS011;46212;50.258;19.062;2023-11-22T00:56:41;24.75;;;14.10;;
53339;SDS011;46212;50.258;19.062;2023-11-22T00:59:15;22.10;;;14.70;;
53339;SDS011;46212;50.258;19.062;2023-11-22T01:01:41;22.05;;;13.02;;
53339;SDS011;46212;50.258;19.062;2023-11-22T01:04:06;21.98;;;12.32;;
53339;SDS011;46212;50.258;19.062;2023-11-22T01:06:32;20.23;;;11.35;;
53339;SDS011;46212;50.258;19.062;2023-11-22T01:08:58;24.57;;;13.47;;
53339;SDS011;46212;50.258;19.062;2023-11-22T01:11:24;22.23;;;12.82;;
53339;SDS011;46212;50.258;19.062;2023-11-22T01:13:50;23.98;;;13.93;;
53339;SDS011;46212;50.258;19.062;2023-11-22T01:16:16;20.50;;;12.68;;
53339;SDS011;46212;50.258;19.062;2023-11-22T01:18:41;23.10;;;12.75;;
53339;SDS011;46212;50.258;19.062;2023-11-22T01:21:08;21.57;;;12.83;;
53339;SDS011;46212;50.258;19.062;2023-11-22T01:23:33;23.42;;;13.52;;
53339;SDS011;46212;50.258;19.062;2023-11-22T01:26:00;25.13;;;12.85;;
53339;SDS011;46212;50.258;19.062;2023-11-22T01:28:26;26.35;;;13.68;;
53339;SDS011;46212;50.258;19.062;2023-11-22T01:30:52;24.70;;;14.68;;
53339;SDS011;46212;50.258;19.062;2023-11-22T01:33:19;23.67;;;13.48;;
53339;SDS011;46212;50.258;19.062;2023-11-22T01:35:45;24.40;;;13.38;;
53339;SDS011;46212;50.258;19.062;2023-11-22T01:38:10;25.60;;;13.98;;
53339;SDS011;46212;50.258;19.062;2023-11-22T01:40:42;27.30;;;13.30;;
53339;SDS011;46212;50.258;19.062;2023-11-22T01:43:09;23.05;;;12.27;;
53339;SDS011;46212;50.258;19.062;2023-11-22T01:45:38;27.13;;;13.50;;
53339;SDS011;46212;50.258;19.062;2023-11-22T01:48:03;25.25;;;13.73;;
53339;SDS011;46212;50.258;19.062;2023-11-22T01:50:29;22.00;;;12.55;;
53339;SDS011;46212;50.258;19.062;2023-11-22T01:52:55;22.90;;;12.35;;
53339;SDS011;46212;50.258;19.062;2023-11-22T01:55:20;23.10;;;13.20;;
53339;SDS011;46212;50.258;19.062;2023-11-22T01:57:46;23.55;;;13.75;;
53339;SDS011;46212;50.258;19.062;2023-11-22T02:00:12;25.23;;;15.07;;
53339;SDS011;46212;50.258;19.062;2023-11-22T02:02:40;26.33;;;13.32;;
53339;SDS011;46212;50.258;19.062;2023-11-22T02:05:05;22.63;;;12.73;;
53339;SDS011;46212;50.258;19.062;2023-11-22T02:07:31;23.52;;;13.05;;
53339;SDS011;46212;50.258;19.062;2023-11-22T02:09:57;22.50;;;11.98;;
53339;SDS011;46212;50.258;19.062;2023-11-22T02:12:23;27.27;;;14.35;;
53339;SDS011;46212;50.258;19.062;2023-11-22T02:14:48;24.92;;;14.02;;
53339;SDS011;46212;50.258;19.062;2023-11-22T02:17:14;26.30;;;14.00;;
53339;SDS011;46212;50.258;19.062;2023-11-22T02:19:41;27.75;;;14.43;;
53339;SDS011;46212;50.258;19.062;2023-11-22T02:22:07;23.90;;;13.73;;
53339;SDS011;46212;50.258;19.062;2023-11-22T02:24:33;28.10;;;14.32;;
53339;SDS011;46212;50.258;19.062;2023-11-22T02:26:59;29.60;;;14.13;;
53339;SDS011;46212;50.258;19.062;2023-11-22T02:29:25;26.50;;;14.15;;
53339;SDS011;46212;50.258;19.062;2023-11-22T02:31:50;24.88;;;13.40;;
53339;SDS011;46212;50.258;19.062;2023-11-22T02:34:15;28.60;;;14.48;;
53339;SDS011;46212;50.258;19.062;2023-11-22T02:36:44;28.73;;;14.27;;
53339;SDS011;46212;50.258;19.062;2023-11-22T02:39:09;29.70;;;14.70;;
53339;SDS011;46212;50.258;19.062;2023-11-22T02:41:35;27.92;;;14.05;;
53339;SDS011;46212;50.258;19.062;2023-11-22T02:44:01;29.50;;;15.18;;
53339;SDS011;46212;50.258;19.062;2023-11-22T02:46:26;27.80;;;14.55;;
53339;SDS011;46212;50.258;19.062;2023-11-22T02:48:52;27.55;;;15.30;;
53339;SDS011;46212;50.258;19.062;2023-11-22T02:51:19;26.38;;;14.05;;
53339;SDS011;46212;50.258;19.062;2023-11-22T02:53:46;30.40;;;14.52;;
53339;SDS011;46212;50.258;19.062;2023-11-22T02:56:13;28.23;;;14.48;;
53339;SDS011;46212;50.258;19.062;2023-11-22T02:58:39;23.10;;;13.17;;
53339;SDS011;46212;50.258;19.062;2023-11-22T03:01:05;29.00;;;13.80;;
53339;SDS011;46212;50.258;19.062;2023-11-22T03:03:32;30.63;;;14.40;;
53339;SDS011;46212;50.258;19.062;2023-11-22T03:05:58;28.10;;;15.02;;
53339;SDS011;46212;50.258;19.062;2023-11-22T03:08:23;23.92;;;14.07;;
53339;SDS011;46212;50.258;19.062;2023-11-22T03:10:48;24.77;;;13.18;;
53339;SDS011;46212;50.258;19.062;2023-11-22T03:15:42;27.27;;;13.35;;
53339;SDS011;46212;50.258;19.062;2023-11-22T03:18:08;23.65;;;12.20;;
53339;SDS011;46212;50.258;19.062;2023-11-22T03:20:33;21.70;;;12.15;;
53339;SDS011;46212;50.258;19.062;2023-11-22T03:22:59;23.48;;;12.63;;
53339;SDS011;46212;50.258;19.062;2023-11-22T03:25:25;27.35;;;12.65;;
53339;SDS011;46212;50.258;19.062;2023-11-22T03:27:50;24.90;;;12.52;;
53339;SDS011;46212;50.258;19.062;2023-11-22T03:30:16;25.67;;;14.25;;
53339;SDS011;46212;50.258;19.062;2023-11-22T03:32:42;25.50;;;15.10;;
53339;SDS011;46212;50.258;19.062;2023-11-22T03:35:09;27.00;;;15.00;;
53339;SDS011;46212;50.258;19.062;2023-11-22T03:37:35;25.17;;;13.32;;
53339;SDS011;46212;50.258;19.062;2023-11-22T03:40:00;31.45;;;14.50;;
53339;SDS011;46212;50.258;19.062;2023-11-22T03:42:26;29.15;;;14.65;;
53339;SDS011;46212;50.258;19.062;2023-11-22T03:44:54;21.73;;;12.07;;
53339;SDS011;46212;50.258;19.062;2023-11-22T03:47:20;25.60;;;14.60;;
53339;SDS011;46212;50.258;19.062;2023-11-22T03:49:46;24.73;;;13.80;;
53339;SDS011;46212;50.258;19.062;2023-11-22T03:52:11;25.88;;;13.85;;
53339;SDS011;46212;50.258;19.062;2023-11-22T03:54:37;27.63;;;12.63;;
53339;SDS011;46212;50.258;19.062;2023-11-22T03:57:04;25.52;;;13.65;;
53339;SDS011;46212;50.258;19.062;2023-11-22T03:59:29;22.83;;;12.10;;
53339;SDS011;46212;50.258;19.062;2023-11-22T04:01:55;26.00;;;13.32;;
53339;SDS011;46212;50.258;19.062;2023-11-22T04:04:21;24.33;;;12.75;;
53339;SDS011;46212;50.258;19.062;2023-11-22T04:06:46;20.25;;;11.18;;
53339;SDS011;46212;50.258;19.062;2023-11-22T04:09:11;22.15;;;10.52;;
53339;SDS011;46212;50.258;19.062;2023-11-22T04:11:41;25.48;;;11.30;;
53339;SDS011;46212;50.258;19.062;2023-11-22T04:14:07;19.75;;;11.52;;
53339;SDS011;46212;50.258;19.062;2023-11-22T04:16:33;19.98;;;10.95;;
53339;SDS011;46212;50.258;19.062;2023-11-22T04:18:58;17.25;;;10.10;;
53339;SDS011;46212;50.258;19.062;2023-11-22T04:21:24;17.73;;;10.82;;
53339;SDS011;46212;50.258;19.062;2023-11-22T04:23:49;20.67;;;11.98;;
53339;SDS011;46212;50.258;19.062;2023-11-22T04:26:15;18.23;;;10.50;;
53339;SDS011;46212;50.258;19.062;2023-11-22T04:28:41;20.80;;;11.90;;
53339;SDS011;46212;50.258;19.062;2023-11-22T04:31:07;18.33;;;9.80;;
53339;SDS011;46212;50.258;19.062;2023-11-22T04:33:33;21.08;;;10.82;;
53339;SDS011;46212;50.258;19.062;2023-11-22T04:35:59;19.85;;;9.75;;
53339;SDS011;46212;50.258;19.062;2023-11-22T04:38:25;19.60;;;10.10;;
53339;SDS011;46212;50.258;19.062;2023-11-22T04:40:51;22.48;;;12.18;;
53339;SDS011;46212;50.258;19.062;2023-11-22T04:43:16;23.25;;;11.27;;
53339;SDS011;46212;50.258;19.062;2023-11-22T04:45:42;22.58;;;11.90;;
53339;SDS011;46212;50.258;19.062;2023-11-22T04:48:08;19.05;;;11.45;;
53339;SDS011;46212;50.258;19.062;2023-11-22T04:50:33;17.50;;;11.15;;
53339;SDS011;46212;50.258;19.062;2023-11-22T04:52:59;21.77;;;12.27;;
53339;SDS011;46212;50.258;19.062;2023-11-22T04:55:26;21.33;;;11.25;;
53339;SDS011;46212;50.258;19.062;2023-11-22T04:57:53;20.50;;;10.70;;
53339;SDS011;46212;50.258;19.062;2023-11-22T05:00:19;18.05;;;9.70;;
53339;SDS011;46212;50.258;19.062;2023-11-22T05:02:44;17.85;;;10.40;;
53339;SDS011;46212;50.258;19.062;2023-11-22T05:05:10;16.75;;;9.98;;
53339;SDS011;46212;50.258;19.062;2023-11-22T05:07:35;21.85;;;11.20;;
53339;SDS011;46212;50.258;19.062;2023-11-22T05:10:01;17.80;;;10.90;;
53339;SDS011;46212;50.258;19.062;2023-11-22T05:12:28;18.15;;;10.57;;
53339;SDS011;46212;50.258;19.062;2023-11-22T05:14:53;18.13;;;10.63;;
53339;SDS011;46212;50.258;19.062;2023-11-22T05:17:19;20.33;;;10.63;;
53339;SDS011;46212;50.258;19.062;2023-11-22T05:19:45;21.92;;;12.10;;
53339;SDS011;46212;50.258;19.062;2023-11-22T05:22:10;17.63;;;10.30;;
53339;SDS011;46212;50.258;19.062;2023-11-22T05:24:35;21.52;;;11.20;;
53339;SDS011;46212;50.258;19.062;2023-11-22T05:27:03;19.60;;;11.15;;
53339;SDS011;46212;50.258;19.062;2023-11-22T05:29:29;16.70;;;9.45;;
53339;SDS011;46212;50.258;19.062;2023-11-22T05:31:54;18.73;;;10.77;;
53339;SDS011;46212;50.258;19.062;2023-11-22T05:34:20;24.30;;;11.40;;
53339;SDS011;46212;50.258;19.062;2023-11-22T05:36:46;19.48;;;10.27;;
53339;SDS011;46212;50.258;19.062;2023-11-22T05:39:11;16.83;;;9.65;;
53339;SDS011;46212;50.258;19.062;2023-11-22T05:41:37;17.08;;;10.13;;
53339;SDS011;46212;50.258;19.062;2023-11-22T05:44:03;20.35;;;9.90;;
53339;SDS011;46212;50.258;19.062;2023-11-22T05:46:29;19.25;;;10.80;;
53339;SDS011;46212;50.258;19.062;2023-11-22T05:48:54;18.67;;;10.27;;
53339;SDS011;46212;50.258;19.062;2023-11-22T05:51:20;20.58;;;11.55;;
53339;SDS011;46212;50.258;19.062;2023-11-22T05:53:45;23.48;;;11.63;;
53339;SDS011;46212;50.258;19.062;2023-11-22T05:56:11;22.35;;;12.05;;
53339;SDS011;46212;50.258;19.062;2023-11-22T05:58:37;18.25;;;10.65;;
53339;SDS011;46212;50.258;19.062;2023-11-22T06:01:07;22.80;;;11.45;;
53339;SDS011;46212;50.258;19.062;2023-11-22T06:03:33;20.33;;;11.00;;
53339;SDS011;46212;50.258;19.062;2023-11-22T06:06:00;22.40;;;10.32;;
53339;SDS011;46212;50.258;19.062;2023-11-22T06:08:26;21.58;;;11.88;;
53339;SDS011;46212;50.258;19.062;2023-11-22T06:10:51;20.95;;;10.77;;
53339;SDS011;46212;50.258;19.062;2023-11-22T06:13:18;21.58;;;11.93;;
53339;SDS011;46212;50.258;19.062;2023-11-22T06:15:44;19.23;;;10.60;;
53339;SDS011;46212;50.258;19.062;2023-11-22T06:18:09;25.05;;;12.55;;
53339;SDS011;46212;50.258;19.062;2023-11-22T06:20:35;19.50;;;10.63;;
53339;SDS011;46212;50.258;19.062;2023-11-22T06:23:00;18.77;;;9.65;;
53339;SDS011;46212;50.258;19.062;2023-11-22T06:25:25;22.70;;;11.02;;
53339;SDS011;46212;50.258;19.062;2023-11-22T06:27:52;18.60;;;10.88;;
53339;SDS011;46212;50.258;19.062;2023-11-22T06:30:17;18.25;;;9.40;;
53339;SDS011;46212;50.258;19.062;2023-11-22T06:32:43;20.67;;;10.35;;
53339;SDS011;46212;50.258;19.062;2023-11-22T06:35:09;22.37;;;9.97;;
53339;SDS011;46212;50.258;19.062;2023-11-22T06:37:36;21.63;;;9.43;;
53339;SDS011;46212;50.258;19.062;2023-11-22T06:40:02;19.63;;;10.32;;
53339;SDS011;46212;50.258;19.062;2023-11-22T06:42:27;14.23;;;9.13;;
53339;SDS011;46212;50.258;19.062;2023-11-22T06:44:53;21.58;;;10.52;;
53339;SDS011;46212;50.258;19.062;2023-11-22T06:47:19;23.20;;;10.52;;
53339;SDS011;46212;50.258;19.062;2023-11-22T06:49:44;19.08;;;11.50;;
53339;SDS011;46212;50.258;19.062;2023-11-22T06:52:10;20.52;;;11.75;;
53339;SDS011;46212;50.258;19.062;2023-11-22T06:54:35;20.13;;;11.20;;
53339;SDS011;46212;50.258;19.062;2023-11-22T06:57:01;22.45;;;11.70;;
53339;SDS011;46212;50.258;19.062;2023-11-22T06:59:28;24.15;;;11.48;;
53339;SDS011;46212;50.258;19.062;2023-11-22T07:01:53;16.60;;;10.10;;
53339;SDS011;46212;50.258;19.062;2023-11-22T07:04:20;24.02;;;11.70;;
53339;SDS011;46212;50.258;19.062;2023-11-22T07:06:46;23.65;;;11.40;;
53339;SDS011;46212;50.258;19.062;2023-11-22T07:09:12;20.65;;;11.38;;
53339;SDS011;46212;50.258;19.062;2023-11-22T07:11:38;22.30;;;13.13;;
53339;SDS011;46212;50.258;19.062;2023-11-22T07:14:04;22.13;;;12.50;;
53339;SDS011;46212;50.258;19.062;2023-11-22T07:16:30;19.90;;;11.50;;
53339;SDS011;46212;50.258;19.062;2023-11-22T07:18:56;26.17;;;11.90;;
53339;SDS011;46212;50.258;19.062;2023-11-22T07:21:21;32.35;;;12.65;;
53339;SDS011;46212;50.258;19.062;2023-11-22T07:23:47;23.42;;;12.35;;
53339;SDS011;46212;50.258;19.062;2023-11-22T07:26:12;21.05;;;12.25;;
53339;SDS011;46212;50.258;19.062;2023-11-22T07:28:41;23.92;;;11.80;;
53339;SDS011;46212;50.258;19.062;2023-11-22T07:31:07;22.35;;;13.13;;
53339;SDS011;46212;50.258;19.062;2023-11-22T07:33:34;22.00;;;11.48;;
53339;SDS011;46212;50.258;19.062;2023-11-22T07:35:59;29.02;;;14.43;;
53339;SDS011;46212;50.258;19.062;2023-11-22T07:38:25;31.10;;;16.05;;
53339;SDS011;46212;50.258;19.062;2023-11-22T07:40:50;24.10;;;13.57;;
53339;SDS011;46212;50.258;19.062;2023-11-22T07:43:16;24.17;;;13.25;;
53339;SDS011;46212;50.258;19.062;2023-11-22T07:45:43;25.10;;;12.02;;
53339;SDS011;46212;50.258;19.062;2023-11-22T07:48:09;15.35;;;8.88;;
53339;SDS011;46212;50.258;19.062;2023-11-22T07:50:37;19.58;;;10.23;;
53339;SDS011;46212;50.258;19.062;2023-11-22T07:53:04;45.58;;;23.33;;
53339;SDS011;46212;50.258;19.062;2023-11-22T07:55:30;108.25;;;51.90;;
53339;SDS011;46212;50.258;19.062;2023-11-22T07:57:55;21.90;;;11.82;;
53339;SDS011;46212;50.258;19.062;2023-11-22T08:00:23;20.63;;;11.07;;
53339;SDS011;46212;50.258;19.062;2023-11-22T08:02:48;19.98;;;10.75;;
53339;SDS011;46212;50.258;19.062;2023-11-22T08:05:14;17.17;;;8.82;;
53339;SDS011;46212;50.258;19.062;2023-11-22T08:07:41;18.58;;;10.88;;
53339;SDS011;46212;50.258;19.062;2023-11-22T08:10:09;18.45;;;10.13;;
53339;SDS011;46212;50.258;19.062;2023-11-22T08:12:42;22.25;;;12.98;;
53339;SDS011;46212;50.258;19.062;2023-11-22T08:15:09;25.88;;;12.65;;
53339;SDS011;46212;50.258;19.062;2023-11-22T08:17:37;24.48;;;12.88;;
53339;SDS011;46212;50.258;19.062;2023-11-22T08:20:03;21.83;;;11.32;;
53339;SDS011;46212;50.258;19.062;2023-11-22T08:22:30;20.75;;;11.70;;
53339;SDS011;46212;50.258;19.062;2023-11-22T08:25:01;20.92;;;12.15;;
53339;SDS011;46212;50.258;19.062;2023-11-22T08:27:29;18.63;;;11.00;;
53339;SDS011;46212;50.258;19.062;2023-11-22T08:29:56;20.55;;;12.55;;
53339;SDS011;46212;50.258;19.062;2023-11-22T08:32:21;21.08;;;11.93;;
53339;SDS011;46212;50.258;19.062;2023-11-22T08:37:17;20.88;;;9.60;;
53339;SDS011;46212;50.258;19.062;2023-11-22T08:39:42;17.50;;;10.43;;
53339;SDS011;46212;50.258;19.062;2023-11-22T08:42:08;19.73;;;11.52;;
53339;SDS011;46212;50.258;19.062;2023-11-22T08:44:37;18.30;;;11.13;;
53339;SDS011;46212;50.258;19.062;2023-11-22T08:47:03;18.80;;;10.25;;
53339;SDS011;46212;50.258;19.062;2023-11-22T08:49:29;18.63;;;10.60;;
53339;SDS011;46212;50.258;19.062;2023-11-22T08:51:54;18.10;;;11.15;;
53339;SDS011;46212;50.258;19.062;2023-11-22T08:54:21;20.30;;;10.07;;
53339;SDS011;46212;50.258;19.062;2023-11-22T08:56:46;21.73;;;10.43;;
53339;SDS011;46212;50.258;19.062;2023-11-22T08:59:12;20.85;;;10.82;;
53339;SDS011;46212;50.258;19.062;2023-11-22T09:01:38;22.77;;;11.80;;
53339;SDS011;46212;50.258;19.062;2023-11-22T09:04:03;22.50;;;10.55;;
53339;SDS011;46212;50.258;19.062;2023-11-22T09:06:29;24.75;;;10.13;;
53339;SDS011;46212;50.258;19.062;2023-11-22T09:08:55;24.27;;;12.23;;
53339;SDS011;46212;50.258;19.062;2023-11-22T09:11:21;23.20;;;11.18;;
53339;SDS011;46212;50.258;19.062;2023-11-22T09:13:47;23.77;;;10.80;;
53339;SDS011;46212;50.258;19.062;2023-11-22T09:16:15;21.15;;;11.98;;
53339;SDS011;46212;50.258;19.062;2023-11-22T09:18:41;23.60;;;12.60;;
53339;SDS011;46212;50.258;19.062;2023-11-22T09:21:08;20.42;;;11.75;;
53339;SDS011;46212;50.258;19.062;2023-11-22T09:23:34;20.38;;;11.70;;
53339;SDS011;46212;50.258;19.062;2023-11-22T09:26:01;20.90;;;12.20;;
53339;SDS011;46212;50.258;19.062;2023-11-22T09:28:27;18.83;;;9.82;;
53339;SDS011;46212;50.258;19.062;2023-11-22T09:30:53;19.13;;;11.05;;
53339;SDS011;46212;50.258;19.062;2023-11-22T09:33:18;18.00;;;8.90;;
53339;SDS011;46212;50.258;19.062;2023-11-22T09:35:45;19.88;;;10.63;;
53339;SDS011;46212;50.258;19.062;2023-11-22T09:38:12;18.67;;;8.68;;
53339;SDS011;46212;50.258;19.062;2023-11-22T09:40:47;16.00;;;8.83;;
53339;SDS011;46212;50.258;19.062;2023-11-22T09:43:14;20.65;;;9.60;;
53339;SDS011;46212;50.258;19.062;2023-11-22T09:45:43;20.10;;;10.60;;
53339;SDS011;46212;50.258;19.062;2023-11-22T09:48:19;15.70;;;9.60;;
53339;SDS011;46212;50.258;19.062;2023-11-22T09:56:02;15.88;;;7.72;;
53339;SDS011;46212;50.258;19.062;2023-11-22T09:58:29;16.13;;;8.32;;
53339;SDS011;46212;50.258;19.062;2023-11-22T10:00:57;33.63;;;17.77;;
53339;SDS011;46212;50.258;19.062;2023-11-22T10:05:51;16.00;;;8.00;;
53339;SDS011;46212;50.258;19.062;2023-11-22T10:08:17;16.40;;;8.10;;
53339;SDS011;46212;50.258;19.062;2023-11-22T10:10:43;15.60;;;8.15;;
53339;SDS011;46212;50.258;19.062;2023-11-22T10:13:12;16.33;;;8.63;;
53339;SDS011;46212;50.258;19.062;2023-11-22T10:15:38;18.08;;;9.07;;
53339;SDS011;46212;50.258;19.062;2023-11-22T10:18:03;20.27;;;8.75;;
53339;SDS011;46212;50.258;19.062;2023-11-22T10:20:36;16.65;;;8.30;;
53339;SDS011;46212;50.258;19.062;2023-11-22T10:23:11;19.30;;;9.32;;
53339;SDS011;46212;50.258;19.062;2023-11-22T10:25:45;17.25;;;7.72;;
53339;SDS011;46212;50.258;19.062;2023-11-22T10:28:12;11.88;;;6.03;;
53339;SDS011;46212;50.258;19.062;2023-11-22T10:30:38;12.93;;;6.13;;
53339;SDS011;46212;50.258;19.062;2023-11-22T10:33:05;14.00;;;7.68;;
53339;SDS011;46212;50.258;19.062;2023-11-22T10:35:31;13.77;;;6.43;;
53339;SDS011;46212;50.258;19.062;2023-11-22T10:37:58;18.35;;;7.03;;
53339;SDS011;46212;50.258;19.062;2023-11-22T10:40:24;15.25;;;8.02;;
53339;SDS011;46212;50.258;19.062;2023-11-22T10:42:50;12.55;;;6.95;;
53339;SDS011;46212;50.258;19.062;2023-11-22T10:45:17;12.32;;;6.43;;
53339;SDS011;46212;50.258;19.062;2023-11-22T10:47:43;15.88;;;7.43;;
53339;SDS011;46212;50.258;19.062;2023-11-22T10:50:09;9.73;;;6.45;;
53339;SDS011;46212;50.258;19.062;2023-11-22T10:52:37;14.07;;;6.95;;
53339;SDS011;46212;50.258;19.062;2023-11-22T10:55:06;11.55;;;6.78;;
53339;SDS011;46212;50.258;19.062;2023-11-22T10:57:32;11.93;;;7.22;;
53339;SDS011;46212;50.258;19.062;2023-11-22T11:00:05;19.23;;;8.23;;
53339;SDS011;46212;50.258;19.062;2023-11-22T11:02:34;12.93;;;7.10;;
53339;SDS011;46212;50.258;19.062;2023-11-22T11:05:32;13.00;;;6.28;;
53339;SDS011;46212;50.258;19.062;2023-11-22T11:08:00;14.40;;;6.55;;
53339;SDS011;46212;50.258;19.062;2023-11-22T11:10:37;10.75;;;5.80;;
53339;SDS011;46212;50.258;19.062;2023-11-22T11:13:06;14.85;;;6.85;;
53339;SDS011;46212;50.258;19.062;2023-11-22T11:15:34;14.18;;;6.63;;
53339;SDS011;46212;50.258;19.062;2023-11-22T11:18:00;40.90;;;32.33;;
53339;SDS011;46212;50.258;19.062;2023-11-22T11:20:31;14.07;;;6.93;;
53339;SDS011;46212;50.258;19.062;2023-11-22T11:22:57;12.90;;;6.65;;
53339;SDS011;46212;50.258;19.062;2023-11-22T11:25:23;9.60;;;6.75;;
53339;SDS011;46212;50.258;19.062;2023-11-22T11:27:55;9.67;;;5.93;;
53339;SDS011;46212;50.258;19.062;2023-11-22T11:30:44;10.68;;;6.20;;
53339;SDS011;46212;50.258;19.062;2023-11-22T11:33:14;9.27;;;5.28;;
53339;SDS011;46212;50.258;19.062;2023-11-22T11:35:47;10.85;;;5.38;;
53339;SDS011;46212;50.258;19.062;2023-11-22T11:38:14;14.30;;;7.85;;
53339;SDS011;46212;50.258;19.062;2023-11-22T11:40:47;11.38;;;6.63;;
53339;SDS011;46212;50.258;19.062;2023-11-22T11:43:13;11.32;;;6.63;;
53339;SDS011;46212;50.258;19.062;2023-11-22T11:45:40;13.55;;;7.50;;
53339;SDS011;46212;50.258;19.062;2023-11-22T11:48:12;12.13;;;6.80;;
53339;SDS011;46212;50.258;19.062;2023-11-22T11:50:41;10.48;;;6.15;;
53339;SDS011;46212;50.258;19.062;2023-11-22T11:53:08;15.80;;;7.90;;
53339;SDS011;46212;50.258;19.062;2023-11-22T11:58:06;14.07;;;7.70;;
53339;SDS011;46212;50.258;19.062;2023-11-22T12:00:34;12.05;;;6.68;;
53339;SDS011;46212;50.258;19.062;2023-11-22T12:03:03;16.33;;;7.65;;
53339;SDS011;46212;50.258;19.062;2023-11-22T12:05:30;12.77;;;7.00;;
53339;SDS011;46212;50.258;19.062;2023-11-22T12:07:55;16.15;;;8.45;;
53339;SDS011;46212;50.258;19.062;2023-11-22T12:10:21;13.20;;;8.60;;
53339;SDS011;46212;50.258;19.062;2023-11-22T12:12:46;50.75;;;27.17;;
53339;SDS011;46212;50.258;19.062;2023-11-22T12:15:12;123.70;;;74.70;;
53339;SDS011;46212;50.258;19.062;2023-11-22T12:17:39;19.38;;;8.38;;
53339;SDS011;46212;50.258;19.062;2023-11-22T12:20:09;16.38;;;8.55;;
53339;SDS011;46212;50.258;19.062;2023-11-22T12:22:40;15.30;;;7.22;;
53339;SDS011;46212;50.258;19.062;2023-11-22T12:25:06;15.95;;;7.10;;
53339;SDS011;46212;50.258;19.062;2023-11-22T12:27:32;13.95;;;7.88;;
53339;SDS011;46212;50.258;19.062;2023-11-22T12:29:58;14.20;;;7.85;;
53339;SDS011;46212;50.258;19.062;2023-11-22T12:32:24;13.45;;;7.07;;
53339;SDS011;46212;50.258;19.062;2023-11-22T12:34:50;13.00;;;6.65;;
53339;SDS011;46212;50.258;19.062;2023-11-22T12:37:19;19.48;;;8.70;;
53339;SDS011;46212;50.258;19.062;2023-11-22T12:39:46;18.45;;;7.72;;
53339;SDS011;46212;50.258;19.062;2023-11-22T12:42:13;16.42;;;7.97;;
53339;SDS011;46212;50.258;19.062;2023-11-22T12:44:51;17.02;;;8.82;;
53339;SDS011;46212;50.258;19.062;2023-11-22T12:47:34;16.17;;;7.90;;
53339;SDS011;46212;50.258;19.062;2023-11-22T12:50:00;17.40;;;8.30;;
53339;SDS011;46212;50.258;19.062;2023-11-22T12:52:29;16.25;;;8.68;;
53339;SDS011;46212;50.258;19.062;2023-11-22T12:54:55;15.70;;;8.68;;
53339;SDS011;46212;50.258;19.062;2023-11-22T12:57:20;18.15;;;10.77;;
53339;SDS011;46212;50.258;19.062;2023-11-22T12:59:47;14.35;;;8.05;;
53339;SDS011;46212;50.258;19.062;2023-11-22T13:02:13;14.93;;;9.18;;
53339;SDS011;46212;50.258;19.062;2023-11-22T13:04:40;12.15;;;7.85;;
53339;SDS011;46212;50.258;19.062;2023-11-22T13:07:05;15.00;;;8.93;;
53339;SDS011;46212;50.258;19.062;2023-11-22T13:09:31;15.50;;;7.78;;
53339;SDS011;46212;50.258;19.062;2023-11-22T13:11:58;16.85;;;9.25;;
53339;SDS011;46212;50.258;19.062;2023-11-22T13:14:24;14.40;;;8.30;;
53339;SDS011;46212;50.258;19.062;2023-11-22T13:16:51;13.90;;;7.55;;
53339;SDS011;46212;50.258;19.062;2023-11-22T13:19:17;16.40;;;8.38;;
53339;SDS011;46212;50.258;19.062;2023-11-22T13:21:42;15.38;;;8.32;;
53339;SDS011;46212;50.258;19.062;2023-11-22T13:24:08;17.08;;;8.50;;
53339;SDS011;46212;50.258;19.062;2023-11-22T13:26:34;17.15;;;9.70;;
53339;SDS011;46212;50.258;19.062;2023-11-22T13:28:59;16.83;;;8.48;;
53339;SDS011;46212;50.258;19.062;2023-11-22T13:31:25;18.90;;;8.50;;
53339;SDS011;46212;50.258;19.062;2023-11-22T13:33:51;16.38;;;8.85;;
53339;SDS011;46212;50.258;19.062;2023-11-22T13:36:16;17.85;;;9.77;;
53339;SDS011;46212;50.258;19.062;2023-11-22T13:38:42;17.27;;;9.05;;
53339;SDS011;46212;50.258;19.062;2023-11-22T13:41:07;16.38;;;9.38;;
53339;SDS011;46212;50.258;19.062;2023-11-22T13:43:33;16.13;;;10.90;;
53339;SDS011;46212;50.258;19.062;2023-11-22T13:46:00;18.10;;;9.40;;
53339;SDS011;46212;50.258;19.062;2023-11-22T13:48:25;19.17;;;10.18;;
53339;SDS011;46212;50.258;19.062;2023-11-22T13:50:51;29.85;;;15.55;;
53339;SDS011;46212;50.258;19.062;2023-11-22T13:53:16;36.75;;;21.38;;
53339;SDS011;46212;50.258;19.062;2023-11-22T13:55:46;78.68;;;35.22;;
53339;SDS011;46212;50.258;19.062;2023-11-22T13:58:12;25.05;;;12.85;;
53339;SDS011;46212;50.258;19.062;2023-11-22T14:00:38;32.42;;;15.23;;
53339;SDS011;46212;50.258;19.062;2023-11-22T14:03:04;51.83;;;24.52;;
53339;SDS011;46212;50.258;19.062;2023-11-22T14:05:31;31.17;;;18.85;;
53339;SDS011;46212;50.258;19.062;2023-11-22T14:07:58;22.38;;;13.85;;
53339;SDS011;46212;50.258;19.062;2023-11-22T14:10:24;65.32;;;26.42;;
53339;SDS011;46212;50.258;19.062;2023-11-22T14:12:49;57.88;;;26.67;;
53339;SDS011;46212;50.258;19.062;2023-11-22T14:15:15;34.08;;;18.70;;
53339;SDS011;46212;50.258;19.062;2023-11-22T14:17:41;39.30;;;21.73;;
53339;SDS011;46212;50.258;19.062;2023-11-22T14:22:36;34.00;;;19.98;;
53339;SDS011;46212;50.258;19.062;2023-11-22T14:25:02;159.75;;;69.00;;
53339;SDS011;46212;50.258;19.062;2023-11-22T14:27:27;191.18;;;71.47;;